Time;durP1;ratioP1;P1;durP2;ratioP2;P2;SDS_P1;SDS_P2;PMS_P1;PMS_P2;Temp;Humidity;BMP_temperature;BMP_pressure;BME280_temperature;BME280_humidity;BME280_pressure;Samples;Min_cycle;Max_cycle;Signal;HPM_P1;HPM_P2
2021/03/12 00:03:21;;;;;;;4.53;1.50;;;;;;;-10.90;27.16;99682.66;10620165;27;20053;-48
2021/03/12 00:08:24;;;;;;;4.20;1.52;;;;;;;-10.93;27.58;99690.28;10621002;27;20043;-50
2021/03/12 00:13:27;;;;;;;;;;;;;;;-10.96;27.36;99667.44;10605871;28;20220;-51
2021/03/12 00:18:38;;;;;;;2.53;0.97;;;;;;;-11.03;26.95;99665.75;10622416;28;19923;-51
2021/03/12 00:23:40;;;;;;;2.87;1.40;;;;;;;-11.08;27.35;99667.41;10619893;28;20059;-48
2021/03/12 00:28:43;;;;;;;7.03;2.07;;;;;;;-11.10;27.74;99662.34;10622130;28;20040;-50
2021/03/12 00:33:44;;;;;;;5.47;2.10;;;;;;;-11.11;27.31;99647.97;10622609;27;20456;-50
2021/03/12 00:38:46;;;;;;;9.30;2.07;;;;;;;-11.20;27.61;99638.66;10630084;27;20039;-52
2021/03/12 00:43:50;;;;;;;2.13;1.45;;;;;;;-11.27;27.75;99634.38;10613879;27;20047;-51
2021/03/12 00:49:01;;;;;;;4.10;1.70;;;;;;;-11.35;27.87;99631.00;10587680;27;20051;-51
2021/03/12 00:54:05;;;;;;;6.20;1.73;;;;;;;-11.42;28.66;99621.66;10569361;28;20058;-47
2021/03/12 00:59:09;;;;;;;1.40;0.63;;;;;;;-11.45;28.31;99617.47;10567817;28;20425;-48
2021/03/12 01:04:20;;;;;;;2.60;1.17;;;;;;;-11.44;28.69;99608.16;10568632;28;20051;-50
2021/03/12 01:09:24;;;;;;;2.80;1.17;;;;;;;-11.50;28.61;99613.22;10569993;28;20093;-50
2021/03/12 01:14:27;;;;;;;3.50;1.40;;;;;;;-11.62;29.08;99603.88;10568955;28;20043;-51
2021/03/12 01:19:29;;;;;;;4.63;1.43;;;;;;;-11.65;29.38;99602.19;10586329;28;20043;-47
2021/03/12 01:24:37;;;;;;;4.23;1.43;;;;;;;-11.68;29.09;99599.63;10583922;28;20054;-51
2021/03/12 01:29:43;;;;;;;3.17;1.13;;;;;;;-11.67;28.82;99590.34;10566356;28;20047;-50
2021/03/12 01:34:57;;;;;;;3.80;1.23;;;;;;;-11.67;29.28;99582.72;10588656;28;20472;-52
2021/03/12 01:40:06;;;;;;;3.63;1.13;;;;;;;-11.70;29.01;99572.56;10570147;28;20047;-55
2021/03/12 01:45:19;;;;;;;3.03;1.40;;;;;;;-11.70;29.17;99563.28;10565298;28;20163;-50
2021/03/12 01:50:21;;;;;;;8.80;1.93;;;;;;;-11.65;29.42;99554.00;10593157;27;20051;-48
2021/03/12 01:55:29;;;;;;;5.83;1.60;;;;;;;-11.68;29.54;99558.22;10610542;27;20059;-47
2021/03/12 02:00:32;;;;;;;1.27;0.77;;;;;;;-11.69;29.48;99552.31;10608212;27;20447;-50
2021/03/12 02:05:41;;;;;;;3.03;1.17;;;;;;;-11.77;29.48;99555.66;10625971;27;20146;-50
2021/03/12 02:10:45;;;;;;;;;;;;;;;-11.81;30.14;99547.22;10590031;27;20055;-50
2021/03/12 02:15:55;;;;;;;2.17;1.10;;;;;;;-11.92;30.50;99546.34;10608734;27;20025;-50
2021/03/12 02:21:00;;;;;;;5.87;1.63;;;;;;;-12.03;30.86;99546.34;10608934;27;20055;-49
2021/03/12 02:26:06;;;;;;;3.17;1.53;;;;;;;-12.09;30.41;99552.22;10607857;27;20054;-50
2021/03/12 02:31:09;;;;;;;3.10;1.27;;;;;;;-12.09;30.67;99551.38;10637174;27;20062;-51
2021/03/12 02:36:19;;;;;;;4.10;1.90;;;;;;;-12.07;30.70;99545.50;10655783;27;20379;-53
2021/03/12 02:41:30;;;;;;;4.77;1.80;;;;;;;-12.06;30.51;99549.72;10650478;27;20783;-50
2021/03/12 02:46:37;;;;;;;3.07;1.07;;;;;;;-12.03;31.14;99540.44;10650897;27;20059;-47
2021/03/12 02:51:43;;;;;;;0.47;0.43;;;;;;;-12.05;31.03;99537.88;10608967;27;20080;-46
2021/03/12 02:56:45;;;;;;;3.38;1.40;;;;;;;-12.09;31.35;99536.19;10624659;27;20061;-47
2021/03/12 03:01:51;;;;;;;6.07;1.30;;;;;;;-12.15;32.27;99526.03;10621094;27;20446;-53
2021/03/12 03:07:16;;;;;;;4.67;1.63;;;;;;;-12.20;31.95;99528.53;10606102;27;20108;-50
2021/03/12 03:12:22;;;;;;;2.27;0.80;;;;;;;-12.25;31.90;99522.63;10605962;27;20169;-50
2021/03/12 03:17:25;;;;;;;6.33;1.97;;;;;;;-12.34;33.06;99522.59;10604950;27;20391;-51
2021/03/12 03:22:34;;;;;;;2.90;1.50;;;;;;;-12.42;32.90;99521.69;10575390;27;20366;-50
2021/03/12 03:27:39;;;;;;;3.50;1.50;;;;;;;-12.44;33.63;99518.28;10578619;28;20047;-51
2021/03/12 03:32:40;;;;;;;1.95;1.15;;;;;;;-12.49;33.90;99510.69;10578145;28;20165;-50
2021/03/12 03:37:43;;;;;;;3.60;1.43;;;;;;;-12.50;33.73;99508.13;10573927;28;20055;-50
2021/03/12 03:42:47;;;;;;;4.40;2.17;;;;;;;-12.56;34.00;99502.22;10574272;28;20047;-49
2021/03/12 03:47:51;;;;;;;8.83;3.00;;;;;;;-12.58;34.44;99498.00;10575240;28;20082;-54
2021/03/12 03:52:55;;;;;;;8.47;2.63;;;;;;;-12.60;34.71;99487.00;10580673;28;20117;-50
2021/03/12 03:57:59;;;;;;;1.60;0.87;;;;;;;-12.65;35.26;99494.59;10574208;28;20442;-50
2021/03/12 04:03:02;;;;;;;6.03;2.17;;;;;;;-12.33;35.96;99488.81;10572781;28;20492;-53
2021/03/12 04:08:09;;;;;;;3.23;1.40;;;;;;;-11.76;35.43;99479.59;10577389;28;20060;-47
2021/03/12 04:13:12;;;;;;;6.57;2.57;;;;;;;-11.29;34.51;99473.69;10575038;28;20062;-50
2021/03/12 04:18:14;;;;;;;3.67;1.77;;;;;;;-11.15;33.86;99474.50;10573610;28;20066;-58
2021/03/12 04:23:19;;;;;;;3.83;1.20;;;;;;;-11.38;33.56;99471.16;10570473;28;20043;-54
2021/03/12 04:28:22;;;;;;;3.70;1.37;;;;;;;-11.72;33.26;99461.03;10574538;28;20451;-47
2021/03/12 04:33:23;;;;;;;4.10;1.20;;;;;;;-11.91;33.47;99456.81;10548163;28;20477;-47
2021/03/12 04:38:32;;;;;;;4.23;1.87;;;;;;;-11.98;33.75;99457.63;10545986;28;20055;-48
2021/03/12 04:43:35;;;;;;;3.77;1.80;;;;;;;-11.79;34.61;99454.25;10546735;28;20150;-48
2021/03/12 04:48:38;;;;;;;4.03;1.00;;;;;;;-10.28;35.26;99445.47;10547754;28;20048;-49
2021/03/12 04:53:41;;;;;;;7.17;2.20;;;;;;;-7.95;32.96;99449.91;10547040;28;20400;-58
2021/03/12 04:58:45;;;;;;;4.97;2.38;;;;;;;-6.14;30.11;99434.75;10548134;28;20040;-58
2021/03/12 05:03:47;;;;;;;3.60;1.30;;;;;;;-4.84;28.15;99438.41;10549637;28;20504;-52
2021/03/12 05:08:55;;;;;;;4.32;2.03;;;;;;;-3.88;27.09;99426.25;10548710;28;20055;-53
2021/03/12 05:14:00;;;;;;;5.13;2.03;;;;;;;-2.74;25.71;99431.06;10549609;28;20499;-52
2021/03/12 05:19:10;;;;;;;9.63;2.05;;;;;;;-1.86;24.69;99426.94;10545236;28;20080;-54
2021/03/12 05:24:14;;;;;;;5.50;2.30;;;;;;;-1.13;23.50;99425.75;10545679;28;20052;-49
2021/03/12 05:29:16;;;;;;;9.88;3.10;;;;;;;-0.60;22.54;99417.44;10545230;28;20503;-49
2021/03/12 05:34:20;;;;;;;6.57;3.05;;;;;;;0.30;22.20;99415.03;10545279;28;20531;-50
2021/03/12 05:39:23;;;;;;;4.65;1.60;;;;;;;1.11;21.96;99412.78;10544353;28;20090;-51
2021/03/12 05:44:26;;;;;;;;;;;;;;;1.65;19.77;99416.00;10544746;28;20048;-51
2021/03/12 05:49:32;;;;;;;10.13;2.70;;;;;;;0.87;19.54;99415.69;10543885;28;19939;-49
2021/03/12 05:54:35;;;;;;;10.25;2.60;;;;;;;0.94;20.01;99420.56;10543794;28;20055;-52
2021/03/12 05:59:38;;;;;;;12.65;4.03;;;;;;;2.04;20.13;99407.84;10543328;28;20048;-49
2021/03/12 06:04:45;;;;;;;11.48;4.10;;;;;;;3.39;19.44;99409.63;10548163;28;20093;-53
2021/03/12 06:09:48;;;;;;;14.30;4.32;;;;;;;4.36;18.37;99404.44;10545380;28;20051;-50
2021/03/12 06:14:53;;;;;;;22.73;5.28;;;;;;;4.73;17.44;99402.03;10546751;28;20060;-50
2021/03/12 06:20:14;;;;;;;13.38;5.13;;;;;;;4.63;17.25;99385.38;10543526;28;20488;-53
2021/03/12 06:25:22;;;;;;;28.00;5.88;;;;;;;4.23;17.02;99390.56;10543561;28;20161;-51
2021/03/12 06:30:50;;;;;;;15.82;5.07;;;;;;;4.80;17.09;99391.13;10539542;28;20059;-52
2021/03/12 06:36:28;;;;;;;8.35;3.55;;;;;;;4.30;16.49;99377.03;10541611;28;20481;-49
2021/03/12 06:41:42;;;;;;;10.02;4.13;;;;;;;3.32;16.85;99379.72;10542130;28;20104;-52
2021/03/12 06:46:47;;;;;;;12.27;5.07;;;;;;;3.87;17.11;99378.94;10543508;28;20052;-52
2021/03/12 06:51:56;;;;;;;16.73;6.05;;;;;;;4.24;17.17;99382.63;10541775;28;20044;-54
2021/03/12 06:57:01;;;;;;;11.43;3.63;;;;;;;5.05;17.10;99377.31;10541569;28;20048;-50
2021/03/12 07:02:16;;;;;;;11.35;5.35;;;;;;;5.70;16.56;99362.44;10541283;28;20134;-53
2021/03/12 07:07:36;;;;;;;11.25;4.22;;;;;;;7.52;16.32;99353.31;10543553;28;20392;-50
2021/03/12 07:12:51;;;;;;;17.60;6.75;;;;;;;8.35;15.63;99347.53;10543404;28;20047;-50
2021/03/12 07:17:55;;;;;;;12.38;5.40;;;;;;;8.81;14.87;99354.25;10543655;28;20052;-50
2021/03/12 07:23:02;;;;;;;8.05;3.70;;;;;;;8.02;15.46;99351.09;10542188;28;20056;-52
2021/03/12 07:28:08;;;;;;;8.10;3.53;;;;;;;8.87;14.56;99338.00;10541621;28;20056;-51
2021/03/12 07:33:32;;;;;;;8.80;2.92;;;;;;;9.28;14.04;99345.94;10541355;28;20166;-50
2021/03/12 07:38:35;;;;;;;11.48;4.18;;;;;;;9.25;14.08;99338.34;10541143;28;20055;-54
2021/03/12 07:43:51;;;;;;;12.77;6.03;;;;;;;10.24;13.77;99336.66;10541101;28;20168;-52
2021/03/12 07:49:40;;;;;;;14.95;6.65;;;;;;;10.57;13.44;99324.94;10545420;28;20496;-51
2021/03/12 07:55:05;;;;;;;17.38;6.07;;;;;;;9.84;13.90;99316.56;10374708;28;20077;-54
2021/03/12 08:00:15;;;;;;;16.20;6.30;;;;;;;8.51;14.49;99315.69;10514696;28;20143;-53
2021/03/12 08:05:36;;;;;;;14.80;5.35;;;;;;;7.98;14.36;99315.66;10543674;28;20134;-53
2021/03/12 08:10:40;;;;;;;14.60;6.45;;;;;;;6.81;14.77;99309.06;10554330;28;20035;-52
2021/03/12 08:16:06;;;;;;;14.25;4.70;;;;;;;6.85;15.44;99297.44;10548629;28;20044;-52
2021/03/12 08:21:33;;;;;;;7.70;3.33;;;;;;;8.12;14.99;99283.09;10547776;28;20108;-50
2021/03/12 08:26:55;;;;;;;12.35;5.20;;;;;;;7.66;14.88;99286.81;10548743;28;20044;-50
2021/03/12 08:32:39;;;;;;;6.57;2.55;;;;;;;8.07;14.81;99283.50;10551199;28;20063;-59
2021/03/12 08:38:42;;;;;;;10.07;4.47;;;;;;;8.03;15.36;99271.59;10539969;28;20044;-51
2021/03/12 08:44:13;;;;;;;10.85;4.68;;;;;;;10.44;14.13;99270.03;10552033;28;20048;-50
2021/03/12 08:49:34;;;;;;;17.58;6.40;;;;;;;11.17;13.75;99264.97;10551843;28;20048;-50
2021/03/12 08:54:37;;;;;;;13.87;5.90;;;;;;;12.37;13.30;99259.47;10546612;28;20143;-53
2021/03/12 08:59:42;;;;;;;11.35;5.65;;;;;;;11.72;12.81;99248.34;10546265;28;20047;-50
2021/03/12 09:04:58;;;;;;;11.38;4.25;;;;;;;12.21;12.55;99239.09;10546891;28;20100;-59
2021/03/12 09:10:26;;;;;;;10.45;4.75;;;;;;;11.01;12.63;99239.28;10551276;28;20059;-60
2021/03/12 09:16:01;;;;;;;10.75;4.30;;;;;;;9.27;13.49;99239.34;10527165;28;20058;-52
2021/03/12 09:21:06;;;;;;;9.25;3.80;;;;;;;8.49;13.95;99239.00;10561754;28;20459;-52
2021/03/12 09:26:13;;;;;;;10.00;4.25;;;;;;;7.45;14.64;99218.72;10545521;28;20075;-52
2021/03/12 09:31:30;;;;;;;7.22;3.58;;;;;;;6.77;15.28;99231.03;10545113;28;20056;-52
2021/03/12 09:36:39;;;;;;;12.48;4.50;;;;;;;7.72;14.96;99221.75;10544929;28;20048;-52
2021/03/12 09:42:07;;;;;;;9.45;3.10;;;;;;;8.75;14.04;99219.31;10536768;28;20052;-53
2021/03/12 09:47:16;;;;;;;8.55;3.05;;;;;;;7.98;14.06;99214.41;10546895;28;20040;-55
2021/03/12 09:52:26;;;;;;;9.32;4.57;;;;;;;7.83;14.24;99215.66;10547591;28;20043;-52
2021/03/12 09:57:37;;;;;;;6.35;2.45;;;;;;;7.57;13.95;99204.66;10543983;28;20423;-50
2021/03/12 10:02:53;;;;;;;7.63;3.10;;;;;;;5.77;15.47;99208.00;10543975;28;20048;-50
2021/03/12 10:08:14;;;;;;;3.88;1.92;;;;;;;4.69;16.15;99205.31;10547371;28;20052;-50
2021/03/12 10:13:32;;;;;;;8.10;3.63;;;;;;;3.05;17.08;99203.88;10542444;28;20391;-52
2021/03/12 10:18:40;;;;;;;8.30;3.80;;;;;;;2.48;17.47;99185.75;10542274;28;20392;-52
2021/03/12 10:23:42;;;;;;;7.88;3.38;;;;;;;2.04;18.13;99165.88;10543560;28;20048;-52
2021/03/12 10:28:47;;;;;;;5.75;2.25;;;;;;;1.93;18.61;99166.50;10543190;28;20488;-49
2021/03/12 10:33:50;;;;;;;7.90;2.67;;;;;;;1.69;18.66;99163.56;10545306;28;20082;-52
2021/03/12 10:38:52;;;;;;;6.60;3.07;;;;;;;1.27;19.05;99162.50;10543426;28;20058;-51
2021/03/12 10:43:59;;;;;;;9.18;2.72;;;;;;;1.50;18.30;99161.19;10544433;28;20044;-49
2021/03/12 10:49:02;;;;;;;5.72;2.00;;;;;;;1.02;17.59;99157.84;10544364;28;20082;-54
2021/03/12 10:54:07;;;;;;;9.37;3.87;;;;;;;0.73;17.79;99149.06;10542966;28;20074;-52
2021/03/12 10:59:09;;;;;;;8.50;2.28;;;;;;;1.17;17.52;99140.63;10542838;28;20051;-50
2021/03/12 11:04:12;;;;;;;5.38;1.73;;;;;;;1.35;17.17;99124.03;10542443;28;20079;-49
2021/03/12 11:09:15;;;;;;;4.82;1.65;;;;;;;1.32;17.55;99116.44;10523993;28;20058;-49
2021/03/12 11:14:16;;;;;;;3.47;1.55;;;;;;;0.92;17.10;99115.25;10542339;28;20063;-52
2021/03/12 11:19:18;;;;;;;3.75;1.45;;;;;;;0.73;17.03;99099.91;10541747;28;20384;-49
2021/03/12 11:24:21;;;;;;;3.63;1.33;;;;;;;0.46;17.67;99073.75;10544258;28;20047;-49
2021/03/12 11:29:22;;;;;;;3.88;1.30;;;;;;;0.60;17.71;99067.88;10544488;28;20072;-52
2021/03/12 11:34:24;;;;;;;7.32;2.35;;;;;;;0.39;17.19;99060.34;10557915;28;20079;-52
2021/03/12 11:39:27;;;;;;;4.72;1.75;;;;;;;0.03;17.40;99057.13;10541580;28;20082;-52
2021/03/12 11:44:28;;;;;;;9.05;2.25;;;;;;;0.12;17.75;99061.81;10551019;28;20059;-53
2021/03/12 11:49:30;;;;;;;3.58;1.42;;;;;;;-0.02;17.15;99052.19;10550349;28;20048;-49
2021/03/12 11:54:32;;;;;;;14.77;2.53;;;;;;;-0.03;17.85;99041.03;10550341;28;20051;-52
2021/03/12 11:59:34;;;;;;;7.13;2.10;;;;;;;-0.15;17.68;99043.44;10553059;28;20370;-51
2021/03/12 12:04:36;;;;;;;4.55;1.63;;;;;;;-0.42;17.57;99045.69;10551687;28;20077;-51
2021/03/12 12:09:40;;;;;;;5.95;1.35;;;;;;;-0.81;17.42;99037.25;10549616;28;20048;-51
2021/03/12 12:14:41;;;;;;;2.85;1.48;;;;;;;-0.82;17.84;99042.50;10550033;28;20103;-49
2021/03/12 12:19:45;;;;;;;7.55;1.42;;;;;;;-0.90;18.29;99032.53;10550470;28;20542;-53
2021/03/12 12:24:48;;;;;;;5.88;2.58;;;;;;;-1.12;17.99;99024.19;10551108;28;20058;-53
2021/03/12 12:29:49;;;;;;;5.25;1.20;;;;;;;-0.90;18.36;99032.53;10550222;28;20051;-63
2021/03/12 12:34:51;;;;;;;4.43;1.48;;;;;;;-1.11;18.45;99037.00;10550290;28;20039;-52
2021/03/12 12:39:53;;;;;;;6.68;1.70;;;;;;;-1.11;18.34;99020.69;10554750;28;20077;-51
2021/03/12 12:44:55;;;;;;;3.15;1.23;;;;;;;-1.43;17.97;99005.84;10556317;28;20392;-55
2021/03/12 12:49:57;;;;;;;4.65;1.67;;;;;;;-1.44;18.75;99009.34;10547836;28;20044;-52
2021/03/12 12:54:59;;;;;;;7.03;1.63;;;;;;;-1.30;18.46;98995.78;10547619;28;20048;-51
2021/03/12 13:00:01;;;;;;;5.93;1.42;;;;;;;-1.63;19.09;98995.66;10553988;28;20480;-53
2021/03/12 13:05:03;;;;;;;2.83;1.10;;;;;;;-1.90;19.32;98990.03;10546544;28;20048;-49
2021/03/12 13:10:08;;;;;;;3.28;1.10;;;;;;;-1.76;19.00;98976.50;10546481;28;20040;-51
2021/03/12 13:15:11;;;;;;;5.28;1.23;;;;;;;-1.82;19.20;98976.78;10547792;28;20085;-51
2021/03/12 13:20:18;;;;;;;5.78;1.80;;;;;;;-1.88;19.55;98976.19;10546480;28;20060;-54
2021/03/12 13:25:21;;;;;;;3.72;1.52;;;;;;;-1.83;19.30;98983.69;10546599;28;20082;-49
2021/03/12 13:30:23;;;;;;;3.53;1.60;;;;;;;-2.24;19.66;98970.13;10547677;28;20071;-49
2021/03/12 13:35:25;;;;;;;2.67;1.05;;;;;;;-2.38;19.72;98966.41;10545590;28;20055;-51
2021/03/12 13:40:28;;;;;;;5.20;1.55;;;;;;;-2.45;19.56;98966.75;10545347;28;20044;-49
2021/03/12 13:45:31;;;;;;;3.90;1.60;;;;;;;-2.46;19.59;98924.72;10545990;28;20048;-51
2021/03/12 13:50:34;;;;;;;5.32;1.50;;;;;;;-2.44;19.73;98947.81;10550375;28;20044;-57
2021/03/12 13:55:37;;;;;;;3.38;1.40;;;;;;;-2.44;19.75;98933.19;10548366;28;20040;-49
2021/03/12 14:00:39;;;;;;;6.03;1.95;;;;;;;-2.30;20.37;98930.03;10544472;28;20040;-51
2021/03/12 14:05:40;;;;;;;4.18;1.40;;;;;;;-2.41;20.38;98922.78;10546108;28;20070;-51
2021/03/12 14:10:43;;;;;;;4.63;1.85;;;;;;;-2.71;20.97;98904.41;10544885;28;20438;-48
2021/03/12 14:15:44;;;;;;;2.88;1.20;;;;;;;-3.02;21.28;98905.72;10545063;28;20083;-52
2021/03/12 14:20:46;;;;;;;7.32;1.75;;;;;;;-3.11;21.46;98890.69;10543650;28;20101;-52
2021/03/12 14:25:49;;;;;;;4.97;1.65;;;;;;;-3.36;21.55;98883.16;10543664;28;20052;-52
2021/03/12 14:31:09;;;;;;;3.28;1.38;;;;;;;-3.50;21.85;98877.75;10543765;28;20079;-49
2021/03/12 14:36:11;;;;;;;6.00;2.00;;;;;;;-3.48;22.51;98886.22;10543010;28;20054;-52
2021/03/12 14:41:13;;;;;;;2.88;1.17;;;;;;;-3.63;23.25;98880.00;10546111;28;20058;-58
2021/03/12 14:46:15;;;;;;;3.55;1.35;;;;;;;-3.64;23.30;98890.31;10542599;28;20052;-48
2021/03/12 14:51:27;;;;;;;5.85;1.35;;;;;;;-3.84;23.93;98894.53;10542243;28;20055;-53
2021/03/12 14:56:29;;;;;;;3.85;1.75;;;;;;;-3.97;24.00;98893.34;10537734;28;20044;-51
2021/03/12 15:01:32;;;;;;;;;;;;;;;-4.13;24.67;98897.38;10543254;28;20515;-54
2021/03/12 15:06:35;;;;;;;7.00;1.92;;;;;;;-4.27;24.79;98888.50;10548336;28;19946;-57
2021/03/12 15:11:39;;;;;;;6.45;2.08;;;;;;;-4.31;24.92;98914.31;10542075;28;20036;-49
2021/03/12 15:16:42;;;;;;;6.80;2.00;;;;;;;-4.42;25.49;98904.47;10536280;28;20063;-51
2021/03/12 15:21:47;;;;;;;4.22;1.50;;;;;;;-4.51;25.84;98910.75;10536140;28;20052;-48
2021/03/12 15:26:50;;;;;;;3.47;1.33;;;;;;;-4.58;26.12;98908.47;10541890;28;20477;-58
2021/03/12 15:31:52;;;;;;;3.38;0.95;;;;;;;-4.66;26.32;98898.50;10542178;28;20047;-52
2021/03/12 15:36:54;;;;;;;3.97;1.23;;;;;;;-4.70;26.38;98908.03;10540209;28;20047;-51
2021/03/12 15:42:35;;;;;;;3.65;1.35;;;;;;;-4.68;26.43;98911.38;10522525;28;20051;-51
2021/03/12 15:47:37;;;;;;;3.67;1.50;;;;;;;-4.64;26.53;98902.69;10539073;28;20106;-48
2021/03/12 15:52:40;;;;;;;6.10;2.30;;;;;;;-4.71;26.82;98898.66;10539585;28;20040;-48
2021/03/12 15:57:43;;;;;;;6.72;2.00;;;;;;;-4.66;26.71;98898.50;10539264;28;20052;-48
2021/03/12 16:02:45;;;;;;;3.73;1.57;;;;;;;-4.79;27.09;98892.97;10509327;28;20049;-51
2021/03/12 16:07:51;;;;;;;2.85;1.23;;;;;;;-4.93;27.59;98898.56;10501207;28;20052;-55
2021/03/12 16:12:58;;;;;;;2.63;0.98;;;;;;;-4.90;27.63;98884.81;10501712;28;20091;-50
2021/03/12 16:18:04;;;;;;;4.13;1.70;;;;;;;-4.98;27.98;98879.13;10507674;28;20405;-49
2021/03/12 16:23:26;;;;;;;3.13;1.30;;;;;;;-4.95;28.15;98902.94;10539533;28;20081;-48
2021/03/12 16:28:55;;;;;;;5.75;2.30;;;;;;;-4.88;28.47;98908.69;10542319;28;20070;-51
2021/03/12 16:33:57;;;;;;;4.45;1.60;;;;;;;-4.98;28.80;98900.47;10544937;28;20488;-49
2021/03/12 16:39:22;;;;;;;7.03;1.88;;;;;;;-5.02;29.32;98890.38;10544951;28;20139;-51
2021/03/12 16:44:30;;;;;;;3.88;1.08;;;;;;;-5.09;29.41;98880.34;10544170;28;20048;-51
2021/03/12 16:49:32;;;;;;;6.65;2.40;;;;;;;-5.10;29.77;98881.22;10544621;28;20511;-51
2021/03/12 16:54:35;;;;;;;3.85;1.23;;;;;;;-5.12;29.84;98875.31;10546427;28;20063;-47
2021/03/12 16:59:37;;;;;;;5.07;1.15;;;;;;;-5.10;30.11;98847.91;10545128;28;20111;-48
2021/03/12 17:04:39;;;;;;;3.40;1.27;;;;;;;-5.02;29.94;98839.09;10549196;28;20131;-48
2021/03/12 17:09:41;;;;;;;3.72;1.40;;;;;;;-5.06;30.42;98838.38;10545483;28;20044;-51
2021/03/12 17:14:43;;;;;;;1.95;0.80;;;;;;;-5.18;30.79;98831.97;10544038;28;20055;-50
2021/03/12 17:19:46;;;;;;;3.75;1.75;;;;;;;-5.12;31.27;98839.44;10544046;28;20055;-49
2021/03/12 17:24:48;;;;;;;4.57;1.70;;;;;;;-5.06;31.61;98845.25;10544042;28;20067;-51
2021/03/12 17:29:50;;;;;;;7.40;2.20;;;;;;;-5.07;32.59;98835.91;10544152;28;20051;-49
2021/03/12 17:34:52;;;;;;;5.53;1.60;;;;;;;-5.31;34.31;98828.16;10543448;28;20056;-51
2021/03/12 17:39:53;;;;;;;4.25;1.63;;;;;;;-5.40;35.12;98823.38;10543315;28;20044;-51
2021/03/12 17:44:56;;;;;;;9.13;2.10;;;;;;;-5.37;35.85;98815.56;10542898;28;20397;-51
2021/03/12 17:49:57;;;;;;;5.47;2.10;;;;;;;-5.36;36.04;98822.34;10544393;28;20055;-51
2021/03/12 17:54:59;;;;;;;7.57;1.80;;;;;;;-5.19;35.82;98819.22;10543116;28;20442;-48
2021/03/12 18:00:02;;;;;;;7.68;1.73;;;;;;;-5.11;36.46;98810.38;10541360;28;20039;-56
2021/03/12 18:05:15;;;;;;;4.22;1.48;;;;;;;-5.18;37.75;98793.53;10542530;28;20052;-51
2021/03/12 18:10:17;;;;;;;4.57;1.90;;;;;;;-5.18;38.12;98785.00;10542243;28;20606;-57
2021/03/12 18:15:22;;;;;;;5.25;2.42;;;;;;;-5.15;38.10;98788.28;10541848;28;20052;-48
2021/03/12 18:20:23;;;;;;;10.95;2.53;;;;;;;-5.12;38.65;98793.31;10544036;28;20085;-48
2021/03/12 18:25:25;;;;;;;6.50;2.00;;;;;;;-5.16;39.09;98788.38;10543539;28;20392;-52
2021/03/12 18:30:30;;;;;;;3.85;1.55;;;;;;;-5.12;39.75;98790.75;10544342;28;20048;-52
2021/03/12 18:35:31;;;;;;;7.90;1.80;;;;;;;-5.03;40.01;98781.06;10541944;28;20432;-48
2021/03/12 18:40:34;;;;;;;3.22;1.45;;;;;;;-5.00;40.19;98780.94;10540880;28;20526;-51
2021/03/12 18:45:37;;;;;;;4.47;2.20;;;;;;;-4.95;41.18;98774.78;10540158;28;20044;-51
2021/03/12 18:50:39;;;;;;;5.70;2.10;;;;;;;-4.96;41.23;98782.50;10540404;28;20400;-49
2021/03/12 18:55:40;;;;;;;9.45;2.90;;;;;;;-4.81;41.38;98781.09;10537003;28;20520;-51
2021/03/12 19:00:43;;;;;;;4.88;1.73;;;;;;;-4.90;42.61;98777.16;10544314;28;20044;-51
2021/03/12 19:05:45;;;;;;;6.07;1.67;;;;;;;-5.02;44.40;98754.53;10527477;28;20043;-52
2021/03/12 19:10:46;;;;;;;3.53;1.15;;;;;;;-5.11;44.77;98764.25;10504534;28;20049;-60
2021/03/12 19:15:50;;;;;;;6.47;1.98;;;;;;;-5.11;45.46;98753.13;10499245;28;20057;-52
2021/03/12 19:20:51;;;;;;;3.60;1.25;;;;;;;-5.04;45.30;98771.72;10530488;28;20134;-50
2021/03/12 19:25:53;;;;;;;3.75;1.33;;;;;;;-4.98;45.26;98771.50;10515018;28;20071;-50
2021/03/12 19:30:55;;;;;;;4.53;1.48;;;;;;;-4.96;45.52;98749.19;10499227;28;20504;-51
2021/03/12 19:35:57;;;;;;;4.90;1.80;;;;;;;-4.93;44.83;98737.06;10539018;28;20048;-51
2021/03/12 19:40:58;;;;;;;8.00;1.63;;;;;;;-4.83;44.68;98747.84;10539212;28;20438;-52
2021/03/12 19:46:01;;;;;;;5.10;1.55;;;;;;;-4.74;44.41;98732.09;10539649;28;20052;-57
2021/03/12 19:51:03;;;;;;;4.88;1.08;;;;;;;-4.64;43.85;98718.03;10523820;28;20040;-49
2021/03/12 19:56:05;;;;;;;3.78;1.35;;;;;;;-4.58;43.54;98736.66;10513958;28;20055;-51
2021/03/12 20:01:08;;;;;;;7.07;1.85;;;;;;;-4.56;43.56;98727.13;10531062;28;20055;-52
2021/03/12 20:06:10;;;;;;;6.03;2.10;;;;;;;-4.55;43.30;98744.22;10548008;28;20048;-49
2021/03/12 20:11:11;;;;;;;3.28;1.35;;;;;;;-4.55;42.86;98711.72;10550160;28;20134;-49
2021/03/12 20:16:14;;;;;;;5.35;1.17;;;;;;;-4.41;42.44;98718.84;10547527;28;20048;-51
2021/03/12 20:21:15;;;;;;;4.53;1.50;;;;;;;-4.33;41.74;98709.09;10548710;28;20059;-51
2021/03/12 20:26:17;;;;;;;8.65;3.30;;;;;;;-4.26;41.27;98709.69;10547371;28;20048;-53
2021/03/12 20:31:20;;;;;;;5.88;1.63;;;;;;;-4.25;41.22;98701.94;10546643;28;20044;-48
2021/03/12 20:36:22;;;;;;;7.43;2.22;;;;;;;-4.11;40.84;98697.97;10546628;28;20611;-51
2021/03/12 20:41:23;;;;;;;5.43;2.47;;;;;;;-4.11;40.46;98695.41;10546620;28;20361;-58
2021/03/12 20:46:26;;;;;;;6.18;2.30;;;;;;;-4.09;39.79;98688.47;10546244;28;20048;-49
2021/03/12 20:51:28;;;;;;;4.80;1.43;;;;;;;-3.93;39.63;98689.50;10537131;28;20036;-48
2021/03/12 20:56:29;;;;;;;10.98;2.47;;;;;;;-3.86;39.38;98690.88;10543865;28;20052;-52
2021/03/12 21:01:32;;;;;;;3.70;1.80;;;;;;;-3.79;38.95;98684.59;10545082;28;20055;-51
2021/03/12 21:06:33;;;;;;;4.32;1.88;;;;;;;-3.67;38.65;98675.50;10546045;28;20113;-52
2021/03/12 21:11:35;;;;;;;4.63;1.70;;;;;;;-3.57;38.44;98670.81;10545909;28;20126;-53
2021/03/12 21:16:38;;;;;;;5.55;1.73;;;;;;;-3.47;38.05;98666.94;10544645;28;20044;-53
2021/03/12 21:21:39;;;;;;;5.32;1.55;;;;;;;-3.37;37.82;98668.19;10544456;28;20055;-51
2021/03/12 21:26:41;;;;;;;5.05;1.77;;;;;;;-3.44;37.61;98659.09;10546484;28;20483;-49
2021/03/12 21:31:44;;;;;;;6.05;2.00;;;;;;;-3.42;37.75;98659.84;10545699;28;20056;-49
2021/03/12 21:36:45;;;;;;;1.83;0.90;;;;;;;-3.40;37.77;98654.66;10543860;28;20105;-49
2021/03/12 21:41:47;;;;;;;4.22;1.63;;;;;;;-3.32;37.74;98655.16;10544408;28;20044;-51
2021/03/12 21:46:50;;;;;;;5.22;1.60;;;;;;;-3.19;37.75;98645.97;10542745;28;20051;-52
2021/03/12 21:51:51;;;;;;;4.35;1.73;;;;;;;-3.14;37.76;98635.44;10508858;28;20041;-50
2021/03/12 21:56:53;;;;;;;5.70;1.77;;;;;;;-3.15;38.20;98637.19;10524894;28;20468;-52
2021/03/12 22:01:55;;;;;;;3.22;1.33;;;;;;;-3.13;38.18;98634.56;10542314;28;20048;-50
2021/03/12 22:06:57;;;;;;;4.38;1.95;;;;;;;-3.14;38.61;98635.44;10509044;28;20120;-49
2021/03/12 22:11:59;;;;;;;3.33;1.27;;;;;;;-3.17;38.59;98628.75;10508129;28;20118;-52
2021/03/12 22:17:01;;;;;;;4.30;1.90;;;;;;;-3.15;38.70;98631.22;10506149;28;20148;-52
2021/03/12 22:22:03;;;;;;;8.00;2.90;;;;;;;-3.11;38.99;98623.31;10511524;28;20052;-48
2021/03/12 22:27:06;;;;;;;12.80;2.70;;;;;;;-3.08;39.17;98624.88;10541662;28;20055;-55
2021/03/12 22:32:08;;;;;;;5.15;2.47;;;;;;;-3.04;39.57;98622.13;10541886;28;20055;-49
2021/03/12 22:37:10;;;;;;;5.20;2.20;;;;;;;-3.14;40.72;98626.03;10541973;28;20392;-49
2021/03/12 22:42:12;;;;;;;5.57;1.67;;;;;;;-3.20;41.46;98630.59;10544117;28;20540;-48
2021/03/12 22:47:14;;;;;;;4.50;1.95;;;;;;;-3.19;42.10;98630.53;10543113;28;20062;-51
2021/03/12 22:52:16;;;;;;;6.78;2.95;;;;;;;-3.35;42.86;98630.41;10546319;28;20044;-51
2021/03/12 22:57:17;;;;;;;9.73;2.40;;;;;;;-3.38;43.05;98625.41;10541865;28;20059;-51
2021/03/12 23:02:20;;;;;;;5.43;2.00;;;;;;;-3.38;44.28;98615.13;10539958;28;20079;-49
2021/03/12 23:07:21;;;;;;;2.95;1.40;;;;;;;-3.42;45.10;98612.75;10540199;28;20074;-49
2021/03/12 23:12:23;;;;;;;4.55;1.58;;;;;;;-3.54;45.50;98614.16;10540855;28;20054;-49
2021/03/12 23:17:25;;;;;;;6.95;2.47;;;;;;;-3.57;45.65;98601.44;10540396;28;20108;-52
2021/03/12 23:22:27;;;;;;;8.00;1.90;;;;;;;-3.52;46.38;98602.91;10539987;28;20087;-53
2021/03/12 23:27:29;;;;;;;8.85;2.92;;;;;;;-3.58;46.80;98602.34;10540856;28;20047;-52
2021/03/12 23:32:32;;;;;;;7.32;1.63;;;;;;;-3.58;47.05;98598.03;10540811;28;20048;-52
2021/03/12 23:37:34;;;;;;;3.35;1.30;;;;;;;-3.45;46.82;98592.34;10545527;28;20074;-49
2021/03/12 23:42:36;;;;;;;8.05;2.47;;;;;;;-3.45;47.00;98585.47;10548161;28;20052;-49